Latest Weather Observations for Neptune Island

IDS60801

Issued at 2:32 pm CDT Thursday 5 March 2015 (issued every 30 minutes, with the page automatically refreshed every 10 minutes)

About weather observations | Map of weather stations | Latest weather observations for SA | Other Formats
Station Details ID: 018115 Name: NEPTUNE ISLAND Lat: -35.34 Lon: 136.12 Height: 32.0 m
Data from the previous 72 hours. | See also: Recent months at Neptune Island
Date/Time
CDT
Temp
°C
App
Temp
°C
Dew
Point
Rel
Hum
%
Delta-T
°C
Wind Press
QNH
hPa
Press
MSL
hPa
Rain
since 9 am
mm
Dir
 
Spd
km/h
Gust
km/h
Spd
kts
Gust
kts
05/02:30pm 17.3 12.9 7.6 53 4.9 S 20 24 11 13 1023.8 1023.7 0.0
05/02:00pm 18.6 14.8 9.7 56 4.7 S 20 28 11 15 1024.0 1023.9 0.0
05/01:30pm 18.4 14.3 8.7 53 5.0 SSE 20 24 11 13 1024.1 1024.0 0.0
05/01:00pm 17.8 13.7 8.6 55 4.7 S 20 30 11 16 1024.2 1024.1 0.0
05/12:30pm 17.8 13.4 8.9 56 4.6 SSE 22 30 12 16 1024.3 1024.2 0.0
05/12:00pm 18.6 14.0 9.7 56 4.7 SSE 24 30 13 16 1024.7 1024.6 0.0
05/11:30am 17.4 12.2 8.8 57 4.4 SSE 26 35 14 19 1024.9 1024.8 0.0
05/11:00am 17.0 11.4 8.7 58 4.3 SSE 28 35 15 19 1024.8 1024.7 0.0
05/10:30am 16.2 10.5 8.2 59 4.0 SSE 28 35 15 19 1024.7 1024.6 0.0
05/10:00am 16.8 10.9 9.0 60 4.0 SSE 30 43 16 23 1024.3 1024.2 0.0
05/09:30am 16.3 10.5 9.3 63 3.6 S 30 39 16 21 1024.2 1024.1 0.0
05/09:00am 16.0 10.1 9.0 63 3.6 S 30 41 16 22 1023.5 1023.4 0.0
05/08:41am 16.0 10.4 8.7 62 3.7 S 28 46 15 25 1023.4 1023.3 0.0
05/08:30am 15.8 9.7 8.3 61 3.8 S 30 35 16 19 1023.4 1023.3 0.0
05/08:00am 15.9 9.5 9.3 65 3.4 S 33 43 18 23 1023.0 1022.9 0.0
05/07:30am 15.8 8.8 9.9 68 3.1 S 37 43 20 23 1022.4 1022.3 0.0
05/07:00am 16.1 9.7 10.6 70 2.9 SSE 35 43 19 23 1022.1 1022.0 0.0
05/06:30am 16.4 9.2 10.5 68 3.1 S 39 50 21 27 1022.0 1021.9 0.0
05/06:00am 16.5 10.1 9.4 63 3.7 S 33 41 18 22 1021.8 1021.7 0.0
05/05:30am 16.5 9.3 10.4 67 3.2 SSE 39 48 21 26 1021.2 1021.1 0.0
05/05:00am 16.4 10.2 9.3 63 3.7 S 32 41 17 22 1021.2 1021.1 0.0
05/04:30am 16.2 8.3 9.2 63 3.6 S 41 52 22 28 1021.1 1021.0 0.0
05/04:00am 16.3 8.0 9.9 66 3.4 S 44 54 24 29 1020.9 1020.8 0.0
05/03:30am 16.8 9.1 11.5 71 2.9 S 43 52 23 28 1020.7 1020.6 0.0
05/03:00am 16.9 8.6 10.1 64 3.6 S 44 52 24 28 1020.7 1020.6 0.0
05/02:30am 16.7 8.8 11.4 71 2.9 S 44 54 24 29 1020.7 1020.6 0.0
05/02:00am 17.2 8.7 12.1 72 2.8 S 48 54 26 29 1020.4 1020.3 0.0
05/01:30am 17.2 9.3 12.7 75 2.5 S 46 57 25 31 1020.6 1020.5 0.0
05/01:00am 17.6 9.8 13.1 75 2.5 SSW 46 56 25 30 1020.4 1020.3 0.0
05/12:30am 17.6 10.7 13.9 79 2.1 SSW 43 54 23 29 1020.3 1020.2 0.0
05/12:00am 17.6 11.7 14.7 83 1.7 SSW 39 50 21 27 1020.0 1019.9 0.0
 
Date/Time
CDT
Temp
°C
App
Temp
°C
Dew
Point
Rel
Hum
%
Delta-T
°C
Wind Press
QNH
hPa
Press
MSL
hPa
Rain
since 9 am
mm
Dir
 
Spd
km/h
Gust
km/h
Spd
kts
Gust
kts
04/11:30pm 17.0 9.6 14.3 84 1.5 SSW 46 56 25 30 1019.8 1019.7 0.0
04/11:26pm 17.1 9.1 14.6 85 1.4 SSW 50 63 27 34 1019.7 1019.6 0.0
04/11:00pm 18.2 11.1 14.9 81 1.9 SW 46 67 25 36 1019.6 1019.5 0.0
04/10:58pm 18.2 11.5 14.5 79 2.1 SW 43 67 23 36 1019.6 1019.5 0.0
04/10:30pm 18.2 12.2 14.3 78 2.2 WSW 39 46 21 25 1019.5 1019.4 0.0
04/10:12pm 17.6 9.7 13.9 79 2.1 SW 48 61 26 33 1019.2 1019.1 0.0
04/10:00pm 18.3 12.3 15.4 83 1.7 WSW 41 46 22 25 1019.3 1019.2 0.0
04/09:30pm 17.9 12.8 14.8 82 1.8 WSW 35 41 19 22 1018.9 1018.8 0.0
04/09:00pm 17.9 11.4 14.0 78 2.2 WSW 41 48 22 26 1018.5 1018.4 0.0
04/08:30pm 18.1 10.6 14.0 77 2.3 WSW 46 57 25 31 1018.1 1018.0 0.0
04/08:00pm 18.5 11.6 14.0 75 2.6 WSW 43 50 23 27 1017.9 1017.8 0.0
04/07:30pm 18.6 11.7 13.9 74 2.7 WSW 43 48 23 26 1018.0 1017.9 0.0
04/07:00pm 18.5 11.5 13.8 74 2.7 WSW 43 50 23 27 1017.7 1017.6 0.0
04/06:30pm 18.7 13.0 14.2 75 2.6 WSW 37 44 20 24 1017.7 1017.6 0.0
04/06:00pm 18.8 12.5 13.6 72 3.0 WSW 39 46 21 25 1017.5 1017.4 0.0
04/05:30pm 18.9 12.2 13.5 71 3.1 WSW 41 46 22 25 1017.4 1017.3 0.0
04/05:00pm 19.7 13.8 13.6 68 3.5 WSW 37 46 20 25 1017.4 1017.3 0.0
04/04:30pm 19.7 13.8 13.6 68 3.5 WSW 37 43 20 23 1017.6 1017.5 0.0
04/04:00pm 19.4 13.1 13.6 69 3.3 WSW 39 44 21 24 1017.8 1017.7 0.0
04/03:30pm 19.8 14.2 13.3 66 3.7 WSW 35 41 19 22 1018.0 1017.9 0.0
04/03:00pm 20.0 14.9 13.2 65 3.9 WSW 32 35 17 19 1018.1 1018.0 0.0
04/02:30pm 19.8 14.3 12.6 63 4.0 WSW 33 37 18 20 1018.4 1018.3 0.0
04/02:00pm 19.4 15.0 12.9 66 3.7 WSW 28 33 15 18 1018.6 1018.5 0.0
04/01:30pm 18.7 13.3 12.7 68 3.4 WSW 33 41 18 22 1018.8 1018.7 0.0
04/01:00pm 19.2 14.4 11.7 62 4.1 WSW 28 35 15 19 1019.0 1018.9 0.0
04/12:30pm 19.8 15.4 11.8 60 4.4 W 26 32 14 17 1019.3 1019.2 0.0
04/12:00pm 18.6 13.4 11.7 64 3.8 WSW 30 35 16 19 1019.6 1019.5 0.0
04/11:30am 18.5 14.4 11.6 64 3.8 WSW 24 32 13 17 1019.9 1019.8 0.0
04/11:00am 18.8 13.2 11.6 63 4.0 WSW 32 35 17 19 1019.4 1019.3 0.0
04/10:30am 18.3 13.9 11.6 65 3.7 WSW 26 33 14 18 1019.3 1019.2 0.0
04/10:00am 18.3 15.2 12.3 68 3.3 W 20 26 11 14 1019.2 1019.1 0.0
04/09:30am 18.0 14.8 11.8 67 3.4 W 20 24 11 13 1019.0 1018.9 0.0
04/09:00am 17.9 14.6 11.7 67 3.4 W 20 26 11 14 1019.0 1018.9 0.0
04/08:30am 17.3 13.8 10.9 66 3.4 W 20 26 11 14 1019.1 1019.0 0.0
04/08:00am 17.4 13.6 11.0 66 3.5 WSW 22 30 12 16 1018.9 1018.8 0.0
04/07:30am 17.2 13.2 10.6 65 3.5 SW 22 32 12 17 1018.6 1018.5 0.0
04/07:00am 17.0 12.1 10.1 64 3.6 WSW 26 35 14 19 1018.4 1018.3 0.0
04/06:30am 16.9 11.4 10.5 66 3.4 SW 30 35 16 19 1018.1 1018.0 0.0
04/06:00am 16.7 12.0 10.8 68 3.2 SW 26 32 14 17 1018.1 1018.0 0.0
04/05:30am 16.8 11.3 10.4 66 3.4 SW 30 35 16 19 1017.9 1017.8 0.0
04/05:00am 17.0 12.6 10.4 65 3.5 SW 24 30 13 16 1017.9 1017.8 0.0
04/04:30am 17.0 11.9 10.6 66 3.4 SW 28 35 15 19 1018.0 1017.9 0.0
04/04:00am 17.0 13.0 10.4 65 3.5 SW 22 32 12 17 1018.0 1017.9 0.0
04/03:30am 16.9 11.8 10.5 66 3.4 SW 28 33 15 18 1018.0 1017.9 0.0
04/03:00am 17.0 12.7 10.6 66 3.4 SW 24 33 13 18 1018.4 1018.3 0.0
04/02:30am 17.0 12.3 10.8 67 3.3 SW 26 33 14 18 1018.8 1018.7 0.0
04/02:00am 17.1 12.3 11.6 70 3.0 SSW 28 33 15 18 1019.1 1019.0 0.0
04/01:30am 17.2 14.0 11.9 71 2.9 SSW 20 24 11 13 1019.3 1019.2 0.0
04/01:00am 17.0 12.2 11.5 70 3.0 SSW 28 33 15 18 1019.6 1019.5 0.0
04/12:30am 17.1 12.4 12.0 72 2.8 SSW 28 33 15 18 1019.5 1019.4 0.0
04/12:00am 17.3 12.7 12.4 73 2.7 S 28 32 15 17 1019.6 1019.5 0.0
 
Date/Time
CDT
Temp
°C
App
Temp
°C
Dew
Point
Rel
Hum
%
Delta-T
°C
Wind Press
QNH
hPa
Press
MSL
hPa
Rain
since 9 am
mm
Dir
 
Spd
km/h
Gust
km/h
Spd
kts
Gust
kts
03/11:30pm 17.4 13.7 12.7 74 2.6 S 24 30 13 16 1020.0 1019.9 0.0
03/11:00pm 17.3 13.5 12.4 73 2.7 S 24 30 13 16 1020.1 1020.0 0.0
03/10:30pm 17.7 14.1 13.0 74 2.6 S 24 28 13 15 1020.2 1020.1 0.0
03/10:00pm 17.4 13.6 12.3 72 2.8 SSW 24 30 13 16 1020.0 1019.9 0.0
03/09:30pm 17.7 14.0 12.6 72 2.8 S 24 30 13 16 1019.6 1019.5 0.0
03/09:00pm 17.7 13.5 12.4 71 2.9 SSW 26 30 14 16 1019.3 1019.2 0.0
03/08:30pm 17.6 13.0 12.3 71 2.9 S 28 32 15 17 1018.9 1018.8 0.0
03/08:00pm 17.9 13.3 12.4 70 3.1 SSW 28 33 15 18 1018.7 1018.6 0.0
03/07:30pm 18.0 13.3 12.0 68 3.3 SSW 28 32 15 17 1018.4 1018.3 0.0
03/07:00pm 18.8 14.0 12.8 68 3.4 SSW 30 37 16 20 1018.3 1018.2 0.0
03/06:30pm 18.3 12.9 12.1 67 3.4 S 32 35 17 19 1018.1 1018.0 0.0
03/06:00pm 19.0 13.9 13.0 68 3.4 S 32 35 17 19 1018.0 1017.9 0.0
03/05:30pm 19.0 14.2 13.0 68 3.4 S 30 35 16 19 1018.1 1018.0 0.0
03/05:00pm 19.5 15.0 12.7 65 3.8 SSW 28 33 15 18 1018.0 1017.9 0.0
03/04:30pm 19.8 15.9 13.3 66 3.7 SSW 26 32 14 17 1018.1 1018.0 0.0
03/04:00pm 19.2 15.1 12.7 66 3.7 S 26 32 14 17 1018.2 1018.1 0.0
03/03:30pm 19.3 15.3 13.0 67 3.6 S 26 32 14 17 1018.2 1018.1 0.0
03/03:00pm 19.0 15.4 13.0 68 3.4 S 24 28 13 15 1018.5 1018.4 0.0
03/02:30pm 20.3 16.9 12.5 61 4.4 S 22 26 12 14 1018.6 1018.5 0.0
03/02:00pm 20.4 17.2 13.1 63 4.2 S 22 26 12 14 1018.9 1018.8 0.0
03/01:30pm 19.2 15.6 12.0 63 4.0 S 22 28 12 15 1019.1 1019.0 0.0
03/01:00pm 20.6 17.5 12.3 59 4.7 S 20 24 11 13 1019.3 1019.2 0.0
03/12:30pm 19.6 16.0 11.9 61 4.3 SSE 22 28 12 15 1019.5 1019.4 0.0
03/12:00pm 20.1 17.2 12.3 61 4.4 SSE 19 24 10 13 1020.0 1019.9 0.0
03/11:30am 20.5 17.8 11.7 57 4.9 SE 17 24 9 13 1020.2 1020.1 0.0
03/11:00am 20.0 16.9 11.7 59 4.6 SE 19 22 10 12 1020.3 1020.2 0.0
03/10:30am 19.6 16.5 11.6 60 4.4 SE 19 24 10 13 1020.3 1020.2 0.0
03/10:00am 19.2 16.0 12.0 63 4.0 SE 20 26 11 14 1020.1 1020.0 0.0
03/09:30am 18.8 15.3 12.1 65 3.7 SE 22 28 12 15 1019.9 1019.8 0.0
03/09:00am 17.7 13.6 11.5 67 3.4 SE 24 30 13 16 1019.4 1019.3 0.0
03/08:30am 17.4 13.0 11.7 69 3.1 SE 26 32 14 17 1019.1 1019.0 0.0
03/08:00am 16.8 11.9 11.3 70 3.0 SE 28 33 15 18 1018.6 1018.5 0.0
03/07:30am 16.5 12.4 11.4 72 2.8 SE 24 30 13 16 1018.5 1018.4 0.0
03/07:00am 16.4 11.5 11.3 72 2.8 SE 28 35 15 19 1017.9 1017.8 0.0
03/06:30am 16.4 12.0 11.6 73 2.6 SE 26 32 14 17 1017.7 1017.6 0.0
03/06:00am 16.4 12.0 11.6 73 2.6 SE 26 30 14 16 1017.2 1017.1 0.0
03/05:30am 16.4 12.0 11.6 73 2.6 SE 26 33 14 18 1017.2 1017.1 0.0
03/05:00am 16.3 11.1 11.7 74 2.5 SE 30 35 16 19 1017.0 1016.9 0.0
03/04:30am 16.5 11.8 11.9 74 2.5 SE 28 35 15 19 1016.9 1016.8 0.0
03/04:00am 16.4 12.0 11.6 73 2.6 SE 26 32 14 17 1016.9 1016.8 0.0
03/03:30am 16.6 12.2 11.7 73 2.7 SE 26 32 14 17 1016.8 1016.7 0.0
03/03:00am 16.4 11.5 11.3 72 2.7 SE 28 35 15 19 1016.5 1016.4 0.0
03/02:30am 16.5 11.2 11.4 72 2.8 SSE 30 37 16 20 1016.7 1016.6 0.0
03/02:00am 16.6 11.4 11.5 72 2.8 SSE 30 37 16 20 1017.1 1017.0 0.0
03/01:30am 16.8 12.1 11.9 73 2.7 SE 28 35 15 19 1017.3 1017.2 0.0
03/01:00am 16.9 11.8 11.8 72 2.8 SE 30 37 16 20 1017.3 1017.2 0.0
03/12:30am 16.9 11.3 11.6 71 2.9 SSE 32 39 17 21 1017.5 1017.4 0.0
03/12:00am 16.9 11.7 11.6 71 2.9 SSE 30 37 16 20 1017.3 1017.2 0.0
 
Date/Time
CDT
Temp
°C
App
Temp
°C
Dew
Point
Rel
Hum
%
Delta-T
°C
Wind Press
QNH
hPa
Press
MSL
hPa
Rain
since 9 am
mm
Dir
 
Spd
km/h
Gust
km/h
Spd
kts
Gust
kts
02/11:30pm 16.9 11.3 11.6 71 2.9 SSE 32 39 17 21 1017.3 1017.2 0.0
02/11:00pm 17.0 11.3 11.9 72 2.8 SSE 33 39 18 21 1017.6 1017.5 0.0
02/10:30pm 17.1 11.6 12.4 74 2.6 SSE 33 39 18 21 1017.5 1017.4 0.0
02/10:00pm 17.3 12.0 13.0 76 2.4 SSE 33 41 18 22 1017.7 1017.6 0.0
02/09:30pm 17.4 12.4 13.3 77 2.3 SSE 32 41 17 22 1017.0 1016.9 0.0
02/09:00pm 17.5 11.7 13.8 79 2.1 SSE 37 43 20 23 1016.6 1016.5 0.0
02/08:30pm 17.5 12.4 13.8 79 2.1 SSE 33 39 18 21 1016.1 1016.0 0.0
02/08:00pm 17.5 12.5 13.4 77 2.3 S 32 35 17 19 1016.2 1016.1 0.0
02/07:30pm 17.5 13.6 13.4 77 2.3 SSE 26 33 14 18 1016.0 1015.9 0.0
02/07:00pm 17.6 13.8 13.5 77 2.3 S 26 32 14 17 1015.6 1015.5 0.0
02/06:30pm 18.0 13.1 13.7 76 2.4 SSW 32 35 17 19 1015.6 1015.5 0.0
02/06:00pm 18.0 13.0 13.5 75 2.5 SSW 32 37 17 20 1015.3 1015.3 0.0
02/05:30pm 18.2 13.7 13.7 75 2.6 SSW 30 39 16 21 1015.0 1015.0 0.0
02/05:00pm 18.4 14.6 13.5 73 2.8 SSW 26 33 14 18 1015.2 1015.2 0.0
02/04:30pm 18.6 15.2 13.7 73 2.8 SSW 24 32 13 17 1015.1 1015.1 0.0
02/04:00pm 18.4 14.2 13.5 73 2.8 SSW 28 33 15 18 1014.5 1014.5 0.0
02/03:30pm 18.4 14.0 13.0 71 3.0 S 28 32 15 17 1014.1 1014.1 0.0
02/03:00pm 19.5 17.0 14.1 71 3.1 SSW 20 28 11 15 1014.6 1014.6 0.0

Other Formats:

Comma delimited format used in spreadsheet applications
http://www.bom.gov.au/fwo/IDS60801/IDS60801.94804.axf

JavaScript Object Notation format (JSON) in row-major order
http://www.bom.gov.au/fwo/IDS60801/IDS60801.94804.json